createdAt,value
2023-02-11T00:01:24.471Z,69.84
2023-02-11T00:03:52.246Z,69.86
2023-02-11T00:06:19.085Z,70.28
2023-02-11T00:08:46.284Z,70.12
2023-02-11T00:11:15.936Z,70.19
2023-02-11T00:13:44.300Z,70.52
2023-02-11T00:16:15.145Z,69.91
2023-02-11T00:18:42.052Z,69.24
2023-02-11T00:21:18.359Z,68.81
2023-02-11T00:23:46.152Z,68.83
2023-02-11T00:26:20.476Z,68.72
2023-02-11T00:28:48.774Z,68.65
2023-02-11T00:31:17.363Z,68.54
2023-02-11T00:33:44.900Z,68.54
2023-02-11T00:36:23.909Z,68.89
2023-02-11T00:38:52.611Z,68.39
2023-02-11T00:41:20.213Z,68.37
2023-02-11T00:43:47.781Z,68.31
2023-02-11T00:46:15.861Z,68.44
2023-02-11T00:48:43.016Z,68.40
2023-02-11T00:51:10.419Z,68.67
2023-02-11T00:53:37.384Z,68.57
2023-02-11T00:56:04.774Z,68.84
2023-02-11T00:58:31.695Z,68.91
2023-02-11T01:00:58.584Z,68.97
2023-02-11T01:03:25.782Z,69.40
2023-02-11T01:05:53.137Z,68.93
2023-02-11T01:08:20.109Z,69.28
2023-02-11T01:11:01.331Z,69.16
2023-02-11T01:13:29.342Z,69.53
2023-02-11T01:15:56.766Z,69.41
2023-02-11T01:18:24.760Z,69.33
2023-02-11T01:20:52.644Z,69.35
2023-02-11T01:23:19.910Z,69.31
2023-02-11T01:25:46.797Z,69.58
2023-02-11T01:28:23.239Z,69.47
2023-02-11T01:30:50.557Z,69.70
2023-02-11T01:33:17.908Z,69.52
2023-02-11T02:30:08.410Z,73.16
2023-02-11T02:33:16.752Z,73.22
2023-02-11T02:36:07.470Z,73.30
2023-02-11T02:38:53.356Z,73.24
2023-02-11T02:41:25.205Z,73.10
2023-02-11T02:43:52.945Z,73.25
2023-02-11T04:51:03.170Z,76.91
2023-02-11T04:53:29.964Z,76.64
2023-02-11T04:55:56.836Z,76.18
2023-02-11T04:58:24.516Z,75.84
2023-02-11T05:00:51.512Z,75.98
2023-02-11T05:03:18.729Z,75.62
2023-02-11T06:27:10.184Z,81.60
2023-02-11T06:29:37.071Z,81.87
2023-02-11T06:32:04.553Z,81.69
2023-02-11T06:34:31.488Z,81.52
2023-02-11T06:36:58.433Z,81.36
2023-02-11T06:39:25.380Z,81.04
2023-02-11T06:41:52.281Z,80.81
2023-02-11T06:44:19.210Z,80.54
2023-02-11T07:16:52.929Z,79.13
2023-02-11T07:19:20.149Z,78.72
2023-02-11T07:21:48.883Z,78.33
2023-02-11T07:24:15.867Z,78.09
2023-02-11T07:26:42.668Z,85.92
2023-02-11T07:29:09.568Z,80.45
2023-02-11T07:31:36.563Z,78.17
2023-02-11T07:34:03.659Z,77.89
2023-02-11T07:36:32.211Z,79.02
2023-02-11T07:39:00.510Z,75.71
2023-02-11T07:41:27.861Z,75.27
2023-02-11T07:43:55.404Z,74.62
2023-02-11T07:46:27.574Z,74.49
2023-02-11T07:48:55.439Z,74.03
2023-02-11T07:51:25.379Z,73.40
2023-02-11T07:53:53.610Z,72.85
2023-02-11T07:56:21.374Z,72.39
2023-02-11T07:58:49.039Z,72.41
2023-02-11T08:01:25.559Z,71.93
2023-02-11T08:03:53.106Z,69.97
2023-02-11T08:06:21.739Z,68.94
2023-02-11T08:08:48.785Z,67.76
2023-02-11T08:11:18.276Z,67.62
2023-02-11T08:13:45.580Z,66.21
2023-02-11T08:16:41.701Z,65.87
2023-02-11T08:19:13.154Z,64.52
2023-02-11T08:21:40.772Z,63.63
2023-02-11T08:24:08.011Z,63.42
2023-02-11T08:26:35.249Z,64.75
2023-02-11T08:29:13.300Z,63.87
2023-02-11T08:31:42.709Z,62.58
2023-02-11T08:34:11.640Z,60.34
2023-02-11T08:36:39.651Z,59.10
2023-02-11T08:39:19.239Z,55.86
2023-02-11T08:41:51.994Z,55.83
2023-02-11T08:44:20.072Z,56.86
2023-02-11T08:46:47.377Z,56.20
2023-02-11T08:49:15.280Z,54.94
2023-02-11T08:51:42.180Z,53.69
2023-02-11T08:54:10.199Z,53.06
2023-02-11T08:56:38.834Z,54.03
2023-02-11T08:59:07.243Z,53.04
2023-02-11T09:01:34.567Z,53.43
2023-02-11T09:04:01.723Z,52.95
2023-02-11T09:06:29.427Z,51.23
2023-02-11T09:08:57.994Z,50.53
2023-02-11T09:11:32.069Z,49.99
2023-02-11T09:13:59.204Z,48.77
2023-02-11T09:16:28.855Z,47.83
2023-02-11T09:19:00.491Z,46.81
2023-02-11T09:21:28.144Z,47.24
2023-02-11T09:23:55.365Z,47.35
2023-02-11T09:26:25.114Z,47.74
2023-02-11T09:28:52.157Z,47.10
2023-02-11T09:31:22.302Z,47.76
2023-02-11T09:33:52.206Z,47.19
2023-02-11T09:36:24.047Z,46.93
2023-02-11T09:38:51.948Z,45.96
2023-02-11T09:41:24.861Z,46.28
2023-02-11T09:44:05.095Z,45.71
2023-02-11T09:46:41.970Z,44.74
2023-02-11T09:49:20.020Z,43.65
2023-02-11T09:52:01.837Z,43.75
2023-02-11T09:54:36.000Z,42.98
2023-02-11T09:57:03.064Z,42.18
2023-02-11T09:59:30.646Z,42.09
2023-02-11T10:02:02.937Z,42.29
2023-02-11T10:04:45.272Z,41.61
2023-02-11T10:08:10.055Z,42.00
2023-02-11T10:10:46.014Z,41.32
2023-02-11T10:13:45.886Z,41.32
2023-02-11T10:16:45.545Z,41.46
2023-02-11T10:19:33.820Z,41.06
2023-02-11T10:22:12.430Z,40.61
2023-02-11T10:24:43.566Z,40.09
2023-02-11T10:27:20.672Z,39.38
2023-02-11T10:29:57.100Z,38.29
2023-02-11T10:32:32.988Z,38.78
2023-02-11T10:35:10.627Z,38.04
2023-02-11T10:37:37.539Z,38.88
2023-02-11T10:40:06.947Z,38.45
2023-02-11T10:42:35.508Z,36.88
2023-02-11T10:45:07.525Z,36.94
2023-02-11T10:47:38.058Z,37.59
2023-02-11T10:50:29.529Z,38.30
2023-02-11T10:53:12.758Z,37.98
2023-02-11T10:55:49.508Z,38.13
2023-02-11T10:58:29.364Z,38.10
2023-02-11T11:00:57.645Z,38.43
2023-02-11T11:03:27.289Z,39.25
2023-02-11T11:06:02.877Z,38.41
2023-02-11T11:08:46.045Z,38.58
2023-02-11T11:11:18.885Z,37.40
2023-02-11T11:14:00.823Z,37.21
2023-02-11T11:16:35.761Z,37.98
2023-02-11T11:19:08.611Z,38.12
2023-02-11T11:22:07.590Z,37.95
2023-02-11T11:24:44.507Z,37.53
2023-02-11T11:27:19.741Z,36.41
2023-02-11T11:29:50.024Z,36.89
2023-02-11T11:32:22.545Z,36.37
2023-02-11T11:34:55.793Z,36.63
2023-02-11T11:37:39.053Z,36.43
2023-02-11T11:40:33.116Z,36.92
2023-02-11T11:43:25.378Z,35.72
2023-02-11T11:45:57.989Z,34.51
2023-02-11T11:48:51.989Z,33.48
2023-02-11T11:51:19.444Z,33.59
2023-02-11T11:53:51.428Z,33.99
2023-02-11T11:56:27.408Z,34.00
2023-02-11T11:58:54.734Z,34.26
2023-02-11T12:01:39.493Z,34.98
2023-02-11T12:04:43.057Z,34.25
2023-02-11T12:07:32.773Z,33.34
2023-02-11T12:10:14.896Z,32.75
2023-02-11T12:12:53.788Z,31.96
2023-02-11T12:15:44.399Z,31.91
2023-02-11T12:18:33.055Z,31.74
2023-02-11T12:21:18.597Z,31.82
2023-02-11T12:24:17.435Z,31.56
2023-02-11T12:26:50.074Z,32.11
2023-02-11T12:29:38.405Z,31.81
2023-02-11T12:32:58.355Z,32.20
2023-02-11T12:35:46.984Z,32.75
2023-02-11T12:38:38.194Z,31.79
2023-02-11T12:41:44.732Z,32.29
2023-02-11T12:44:34.351Z,32.37
2023-02-11T12:47:35.531Z,32.61
2023-02-11T12:50:05.494Z,33.12
2023-02-11T12:52:55.812Z,32.61
2023-02-11T12:55:29.428Z,32.74
2023-02-11T12:58:00.941Z,32.50
2023-02-11T13:00:40.553Z,32.95
2023-02-11T13:03:18.471Z,31.60
2023-02-11T13:05:51.531Z,31.37
2023-02-11T13:08:42.098Z,30.32
2023-02-11T13:11:15.354Z,31.07
2023-02-11T13:13:45.247Z,31.03
2023-02-11T13:16:37.356Z,31.36
2023-02-11T13:19:13.311Z,31.71
2023-02-11T13:21:40.150Z,31.67
2023-02-11T13:24:15.600Z,31.35
2023-02-11T13:27:00.478Z,31.36
2023-02-11T13:29:36.676Z,31.10
2023-02-11T13:32:13.398Z,31.18
2023-02-11T13:34:59.086Z,30.97
2023-02-11T13:37:34.618Z,30.30
2023-02-11T13:40:04.039Z,29.50
2023-02-11T13:42:34.342Z,29.51
2023-02-11T13:45:01.595Z,29.24
2023-02-11T13:47:37.713Z,29.98
2023-02-11T13:50:08.391Z,29.70
2023-02-11T13:52:38.952Z,29.52
2023-02-11T13:55:14.539Z,28.98
2023-02-11T13:57:42.040Z,28.95
2023-02-11T14:00:45.923Z,28.54
2023-02-11T14:03:31.164Z,29.18
2023-02-11T14:06:29.057Z,29.11
2023-02-11T14:09:14.105Z,29.18
2023-02-11T14:11:43.460Z,29.60
2023-02-11T14:14:29.176Z,29.60
2023-02-11T14:17:02.002Z,29.93
2023-02-11T14:19:37.619Z,29.96
2023-02-11T14:22:13.664Z,29.39
2023-02-11T14:24:49.274Z,29.78
2023-02-11T14:27:35.359Z,29.98
2023-02-11T14:30:26.373Z,30.44
2023-02-11T14:33:20.620Z,30.59
2023-02-11T14:36:09.037Z,30.96
2023-02-11T14:38:38.637Z,30.76
2023-02-11T14:41:11.083Z,30.57
2023-02-11T14:43:47.066Z,30.74
2023-02-11T14:46:17.114Z,30.63
2023-02-11T14:48:48.946Z,30.67
2023-02-11T14:51:27.256Z,31.58
2023-02-11T14:54:00.847Z,32.14
2023-02-11T14:56:32.090Z,32.62
2023-02-11T14:58:58.920Z,32.91
2023-02-11T15:01:37.958Z,32.59
2023-02-11T15:04:06.964Z,33.53
2023-02-11T15:06:37.978Z,34.00
2023-02-11T15:09:15.050Z,34.97
2023-02-11T15:11:44.913Z,35.23
2023-02-11T15:14:22.798Z,35.88
2023-02-11T15:16:53.585Z,36.20
2023-02-11T15:19:34.285Z,36.21
2023-02-11T15:22:04.282Z,36.42
2023-02-11T15:24:33.631Z,36.69
2023-02-11T15:27:08.426Z,36.64
2023-02-11T15:29:43.656Z,37.22
2023-02-11T15:32:10.568Z,37.36
2023-02-11T15:34:37.699Z,37.80
2023-02-11T15:37:13.159Z,38.09
2023-02-11T15:39:42.343Z,38.18
2023-02-11T15:42:19.974Z,38.53
2023-02-11T15:44:54.262Z,39.00
2023-02-11T15:47:23.644Z,39.60
2023-02-11T15:49:51.646Z,40.07
2023-02-11T15:52:25.785Z,40.40
2023-02-11T15:54:54.203Z,40.68
2023-02-11T15:57:22.745Z,40.87
2023-02-11T15:59:53.152Z,41.27
2023-02-11T16:02:31.102Z,41.31
2023-02-11T16:05:01.632Z,41.71
2023-02-11T16:07:45.121Z,42.21
2023-02-11T16:10:26.516Z,42.85
2023-02-11T16:13:06.629Z,42.96
2023-02-11T16:15:39.887Z,43.33
2023-02-11T16:18:38.657Z,43.55
2023-02-11T16:21:07.969Z,43.96
2023-02-11T16:23:38.141Z,43.87
2023-02-11T16:26:10.910Z,44.03
2023-02-11T16:28:38.486Z,43.84
2023-02-11T16:31:06.497Z,43.28
2023-02-11T16:33:33.577Z,43.65
2023-02-11T16:36:02.311Z,43.39
2023-02-11T16:38:30.585Z,43.92
2023-02-11T16:40:57.502Z,44.43
2023-02-11T16:43:24.418Z,44.85
2023-02-11T16:45:51.478Z,45.13
2023-02-11T16:48:20.357Z,45.27
2023-02-11T16:50:52.862Z,45.24
2023-02-11T16:53:24.199Z,45.16
2023-02-11T16:55:52.956Z,45.11
2023-02-11T16:58:19.946Z,44.42
2023-02-11T17:00:47.975Z,44.06
2023-02-11T17:03:23.127Z,44.96
2023-02-11T17:05:55.658Z,45.01
2023-02-11T17:08:23.416Z,45.68
2023-02-11T17:10:50.909Z,45.96
2023-02-11T17:13:18.023Z,46.35
2023-02-11T17:15:44.930Z,47.10
2023-02-11T17:18:14.977Z,47.39
2023-02-11T17:20:42.016Z,47.60
2023-02-11T17:23:09.288Z,47.64
2023-02-11T17:25:38.881Z,47.99
2023-02-11T17:28:06.313Z,48.05
2023-02-11T17:30:33.379Z,48.39
2023-02-11T17:33:00.375Z,48.24
2023-02-11T17:35:27.574Z,48.59
2023-02-11T17:37:54.746Z,48.77
2023-02-11T17:40:22.259Z,48.60
2023-02-11T17:42:50.300Z,48.56
2023-02-11T17:45:17.298Z,48.57
2023-02-11T17:47:44.215Z,48.49
2023-02-11T17:50:11.422Z,48.41
2023-02-11T17:52:38.411Z,48.09
2023-02-11T17:55:06.497Z,47.81
2023-02-11T17:57:34.541Z,47.62
2023-02-11T18:00:01.596Z,47.27
2023-02-11T18:02:28.421Z,46.80
2023-02-11T18:04:57.703Z,46.62
2023-02-11T18:07:25.966Z,46.26
2023-02-11T18:09:53.067Z,46.13
2023-02-11T18:12:26.386Z,45.67
2023-02-11T18:14:56.851Z,45.11
2023-02-11T18:17:24.848Z,45.17
2023-02-11T18:19:55.946Z,44.71
2023-02-11T18:22:23.289Z,44.85
2023-02-11T18:24:54.157Z,44.50
2023-02-11T18:27:23.509Z,44.51
2023-02-11T18:29:50.756Z,44.62
2023-02-11T18:32:17.588Z,44.40
2023-02-11T18:34:44.475Z,44.64
2023-02-11T18:37:13.473Z,44.83
2023-02-11T18:39:40.753Z,44.74
2023-02-11T18:42:07.704Z,45.07
2023-02-11T18:44:34.705Z,45.21
2023-02-11T18:47:01.556Z,45.17
2023-02-11T18:49:28.579Z,45.42
2023-02-11T18:51:55.493Z,45.48
2023-02-11T18:54:23.771Z,45.59
2023-02-11T18:56:50.673Z,45.70
2023-02-11T18:59:17.574Z,45.72
2023-02-11T19:01:47.075Z,45.92
2023-02-11T19:04:19.064Z,45.57
2023-02-11T19:06:49.677Z,44.88
2023-02-11T19:09:19.620Z,44.57
2023-02-11T19:11:54.369Z,43.99
2023-02-11T19:14:26.812Z,44.02
2023-02-11T19:16:57.129Z,44.03
2023-02-11T19:19:26.134Z,43.63
2023-02-11T19:21:53.107Z,43.60
2023-02-11T19:24:20.454Z,43.73
2023-02-11T19:26:48.510Z,42.90
2023-02-11T19:29:16.021Z,42.98
2023-02-11T19:31:45.418Z,42.11
2023-02-11T19:34:14.228Z,42.52
2023-02-11T19:36:42.023Z,42.01
2023-02-11T19:39:09.898Z,42.05
2023-02-11T19:41:37.195Z,41.92
2023-02-11T19:44:05.337Z,41.71
2023-02-11T19:46:35.111Z,41.51
2023-02-11T19:49:03.295Z,41.43
2023-02-11T19:51:31.021Z,41.11
2023-02-11T19:53:58.439Z,41.14
2023-02-11T19:56:25.571Z,41.14
2023-02-11T19:58:52.535Z,40.85
2023-02-11T20:01:21.952Z,40.73
2023-02-11T20:03:50.281Z,40.55
2023-02-11T20:06:20.283Z,40.44
2023-02-11T20:08:47.124Z,40.51
2023-02-11T20:11:17.481Z,40.24
2023-02-11T20:13:44.522Z,40.50
2023-02-11T20:16:19.833Z,40.23
2023-02-11T20:18:48.302Z,40.33
2023-02-11T20:21:17.767Z,40.30
2023-02-11T20:23:46.650Z,40.37
2023-02-11T20:26:16.367Z,40.36
2023-02-11T20:28:43.800Z,40.32
2023-02-11T20:31:12.074Z,40.23
2023-02-11T20:33:40.165Z,40.45
2023-02-11T20:36:10.672Z,40.39
2023-02-11T20:38:37.972Z,40.53
2023-02-11T20:41:09.786Z,40.58
2023-02-11T20:43:38.059Z,40.65
2023-02-11T20:46:06.223Z,41.01
2023-02-11T20:48:34.263Z,41.07
2023-02-11T20:51:10.415Z,41.39
2023-02-11T20:53:39.037Z,41.68
2023-02-11T20:56:08.709Z,41.87
2023-02-11T20:58:37.138Z,41.90
2023-02-11T21:01:14.203Z,42.24
2023-02-11T21:03:44.027Z,42.28
2023-02-11T21:06:11.715Z,42.69
2023-02-11T21:08:38.725Z,42.91
2023-02-11T21:11:09.037Z,43.01
2023-02-11T21:13:37.584Z,42.62
2023-02-11T21:16:05.391Z,42.87
2023-02-11T21:18:32.572Z,42.47
2023-02-11T21:20:59.517Z,42.38
2023-02-11T21:23:26.742Z,42.25
2023-02-11T21:25:54.533Z,41.46
2023-02-11T21:28:26.565Z,41.36
2023-02-11T21:30:55.229Z,40.92
2023-02-11T21:33:23.560Z,40.63
2023-02-11T21:35:56.032Z,40.61
2023-02-11T21:38:23.790Z,40.77
2023-02-11T21:40:51.273Z,40.76
2023-02-11T21:43:18.932Z,40.20
2023-02-11T21:45:48.104Z,40.56
2023-02-11T21:48:16.648Z,40.50
2023-02-11T21:50:46.608Z,40.47
2023-02-11T21:53:14.259Z,40.52
2023-02-11T21:55:41.773Z,40.17
2023-02-11T21:58:09.666Z,40.81
2023-02-11T22:00:36.734Z,40.25
2023-02-11T22:03:03.778Z,40.70
2023-02-11T22:05:30.756Z,40.24
2023-02-11T22:07:57.832Z,40.60
2023-02-11T22:10:25.089Z,40.46
2023-02-11T22:12:51.927Z,40.96
2023-02-11T22:15:18.851Z,41.01
2023-02-11T22:17:45.772Z,40.82
2023-02-11T22:20:12.839Z,40.45
2023-02-11T22:22:39.764Z,40.75
2023-02-11T22:25:07.107Z,41.64
2023-02-11T22:27:34.002Z,41.44
2023-02-11T22:30:00.955Z,42.02
2023-02-11T22:32:27.892Z,42.00
2023-02-11T22:34:55.666Z,42.54
2023-02-11T22:37:22.619Z,42.68
2023-02-11T22:39:49.465Z,42.91
2023-02-11T22:42:16.334Z,43.14
2023-02-11T22:44:43.126Z,43.45
2023-02-11T22:47:10.186Z,43.47
2023-02-11T22:49:37.124Z,43.90
2023-02-11T22:52:04.522Z,43.87
2023-02-11T22:54:31.961Z,43.50
2023-02-11T22:56:58.849Z,43.40
2023-02-11T22:59:25.714Z,43.29
2023-02-11T23:01:52.751Z,43.34
2023-02-11T23:04:19.775Z,43.48
2023-02-11T23:06:47.925Z,43.14
2023-02-11T23:09:15.068Z,43.44
2023-02-11T23:11:42.068Z,43.69
2023-02-11T23:14:12.216Z,43.71
2023-02-11T23:16:39.536Z,43.61
2023-02-11T23:19:08.907Z,43.85
2023-02-11T23:21:39.069Z,44.03
2023-02-11T23:24:15.715Z,44.51
2023-02-11T23:26:43.771Z,44.65
2023-02-11T23:29:11.646Z,45.18
2023-02-11T23:31:40.879Z,45.27
2023-02-11T23:34:08.905Z,45.31
2023-02-11T23:36:36.279Z,45.42
2023-02-11T23:39:03.591Z,45.39
2023-02-11T23:41:31.262Z,45.19
2023-02-11T23:43:59.478Z,45.08
2023-02-11T23:46:27.286Z,44.79
2023-02-11T23:48:54.248Z,44.34
2023-02-11T23:51:22.247Z,44.27
2023-02-11T23:53:49.830Z,43.94
2023-02-11T23:56:19.594Z,43.86
2023-02-11T23:58:52.915Z,43.89
